Kissimmee Gateway Airport
KISM : rendu visible

Aérodrome :











RETROUVEZ-NOUS SUR...

 
LOGIN :

S'inscrire | Disclaimer

   EN    FR    IT 

 









Légende :    VFR   VFR Marginal   IFR   IFR Intensif   IFR Très Intensif
Visi : 
Plafond : 
>= 8 km
>= 3000ft
5 à 8 km
1000 à 3000 ft
1500m à 5 km
500 à 1000 ft
800 à 1500m
200 à 500 ft
< 800m
< 200 ft
Symboles :   Orages  Brouillard  Fortes neiges  Fortes précipitations  Vent > 20 kt






- Altitude de l'aérodrome : 82 ft


KISM - Kissimmee Gateway

DERNIER METAR :
  • 251256Z 00000KT 10SM CLR 19/16 A3024 RMK AO2 SLP239 T01940156 PNO $

METARs EXPIRÉS :
  • 251156Z 08004KT 10SM FEW065 18/16 A3022 RMK AO2 SLP232 6//// 7//// T01830156 10211 20178 53006 PNO $
  • 251056Z AUTO 07005KT 10SM CLR 18/16 A3020 RMK AO2 SLP228 T01830156 PNO $

TAF KISM
Valide du 25 à 12h jusqu'au 26 à 12h UTC


251120Z 2512/2612 07005KT P6SM FEW060
FM251500 13009KT P6SM SCT050
FM260100 12005KT P6SM SCT060
FIR KZMA / Amérique du Nord



MET'MAP, la Météo Aéronautique d'un coup d'oeil ! - Copyright ORBIFLY Décembre 2007 - Disclaimer

ORBIFLY MET'MAP TEAM :

Programmation & Développement : Alexandra Zaïnal
Sur une idée originale de : Baudouin d'Aumeries
Assistance à la programmation : Marc-Olivier Méhu
Soutien technique & logistique : Manuel Goepfert

Contact : metmap@orbifly.com




SOURCES & CREDITS :

   NOAA       Earth
Advisory